createdAt,value
2023-05-10T00:00:42.380Z,11.53
2023-05-10T00:03:08.935Z,11.55
2023-05-10T00:05:35.589Z,11.50
2023-05-10T00:08:02.125Z,11.54
2023-05-10T00:10:28.609Z,11.56
2023-05-10T00:12:55.179Z,11.47
2023-05-10T00:15:21.828Z,11.44
2023-05-10T00:17:48.322Z,11.44
2023-05-10T00:20:15.050Z,11.50
2023-05-10T00:22:41.702Z,11.35
2023-05-10T00:25:09.128Z,11.37
2023-05-10T00:27:35.636Z,11.38
2023-05-10T00:30:02.132Z,11.41
2023-05-10T00:32:29.333Z,11.38
2023-05-10T00:34:56.112Z,11.36
2023-05-10T00:37:22.595Z,11.41
2023-05-10T00:39:49.273Z,11.40
2023-05-10T00:42:15.925Z,11.45
2023-05-10T00:44:42.951Z,11.46
2023-05-10T00:47:09.832Z,11.52
2023-05-10T00:49:37.348Z,11.44
2023-05-10T00:52:04.293Z,11.38
2023-05-10T00:54:31.190Z,11.48
2023-05-10T00:56:58.268Z,11.52
2023-05-10T00:59:25.098Z,11.45
2023-05-10T01:01:52.572Z,11.43
2023-05-10T01:04:21.013Z,11.44
2023-05-10T01:06:47.523Z,11.52
2023-05-10T01:09:14.134Z,11.45
2023-05-10T01:11:41.008Z,11.47
2023-05-10T01:14:07.924Z,11.50
2023-05-10T01:16:38.476Z,11.49
2023-05-10T01:19:17.571Z,11.34
2023-05-10T01:21:53.955Z,11.40
2023-05-10T01:24:33.301Z,11.33
2023-05-10T01:27:04.724Z,11.47
2023-05-10T01:29:43.527Z,11.46
2023-05-10T01:32:15.360Z,11.50
2023-05-10T01:34:57.383Z,11.40
2023-05-10T01:37:34.374Z,11.46
2023-05-10T01:40:16.533Z,11.39
2023-05-10T01:42:50.965Z,11.47
2023-05-10T01:45:28.348Z,11.44
2023-05-10T01:48:03.185Z,11.46
2023-05-10T01:50:31.450Z,11.38
2023-05-10T01:53:01.177Z,11.46
2023-05-10T01:55:31.801Z,11.34
2023-05-10T01:58:07.101Z,11.20
2023-05-10T02:00:35.529Z,11.13
2023-05-10T02:03:06.148Z,11.22
2023-05-10T02:05:34.276Z,11.22
2023-05-10T02:08:02.636Z,11.16
2023-05-10T02:10:31.299Z,11.21
2023-05-10T02:13:01.036Z,11.21
2023-05-10T02:15:28.552Z,11.15
2023-05-10T02:18:00.865Z,11.31
2023-05-10T02:20:27.904Z,11.32
2023-05-10T02:22:56.851Z,11.30
2023-05-10T02:25:24.555Z,11.22
2023-05-10T02:27:54.796Z,11.19
2023-05-10T02:30:22.523Z,11.20
2023-05-10T02:32:52.545Z,11.15
2023-05-10T02:35:20.200Z,11.11
2023-05-10T02:37:48.243Z,11.16
2023-05-10T02:40:17.255Z,11.13
2023-05-10T02:42:45.682Z,11.08
2023-05-10T02:45:16.249Z,10.97
2023-05-10T02:47:42.873Z,10.97
2023-05-10T02:50:09.754Z,10.98
2023-05-10T02:52:50.689Z,11.01
2023-05-10T02:55:20.231Z,10.97
2023-05-10T02:57:59.338Z,11.05
2023-05-10T03:00:26.627Z,11.14
2023-05-10T03:02:53.573Z,11.05
2023-05-10T03:05:20.813Z,11.06
2023-05-10T03:07:48.377Z,11.01
2023-05-10T03:10:15.263Z,11.03
2023-05-10T03:13:05.325Z,10.99
2023-05-10T03:15:58.760Z,11.04
2023-05-10T03:18:50.961Z,10.89
2023-05-10T03:21:19.582Z,10.89
2023-05-10T03:23:57.908Z,10.90
2023-05-10T03:26:27.011Z,10.84
2023-05-10T03:29:01.860Z,10.93
2023-05-10T03:31:28.656Z,10.93
2023-05-10T03:33:55.462Z,10.99
2023-05-10T03:36:26.004Z,11.12
2023-05-10T03:38:52.515Z,11.15
2023-05-10T03:41:19.004Z,11.13
2023-05-10T03:43:45.438Z,11.10
2023-05-10T03:46:11.998Z,11.09
2023-05-10T03:48:38.651Z,11.14
2023-05-10T03:51:05.682Z,11.01
2023-05-10T03:53:32.128Z,11.02
2023-05-10T03:55:58.618Z,11.11
2023-05-10T03:58:25.341Z,11.11
2023-05-10T04:00:52.779Z,11.26
2023-05-10T04:03:19.419Z,11.24
2023-05-10T04:05:46.067Z,11.22
2023-05-10T04:08:12.567Z,11.23
2023-05-10T04:10:39.125Z,11.35
2023-05-10T04:13:05.720Z,11.28
2023-05-10T04:15:32.224Z,11.32
2023-05-10T04:17:58.749Z,11.36
2023-05-10T04:20:25.509Z,11.46
2023-05-10T04:22:51.990Z,11.23
2023-05-10T04:25:18.470Z,11.24
2023-05-10T04:27:44.985Z,11.20
2023-05-10T04:30:12.014Z,11.20
2023-05-10T04:32:38.550Z,11.23
2023-05-10T04:35:05.691Z,11.28
2023-05-10T04:37:32.241Z,11.33
2023-05-10T04:40:00.797Z,11.40
2023-05-10T04:42:27.333Z,11.43
2023-05-10T04:44:53.905Z,11.50
2023-05-10T04:47:20.417Z,11.55
2023-05-10T04:49:47.194Z,11.61
2023-05-10T04:52:13.765Z,11.52
2023-05-10T04:54:40.223Z,11.66
2023-05-10T04:57:06.692Z,11.71
2023-05-10T04:59:33.195Z,11.87
2023-05-10T05:01:59.681Z,12.00
2023-05-10T05:04:26.180Z,11.97
2023-05-10T05:06:53.968Z,11.98
2023-05-10T05:09:20.890Z,11.98
2023-05-10T05:11:47.479Z,12.06
2023-05-10T05:14:13.915Z,12.06
2023-05-10T05:16:40.631Z,11.79
2023-05-10T05:19:07.197Z,11.92
2023-05-10T05:21:33.886Z,12.16
2023-05-10T05:24:00.848Z,12.11
2023-05-10T05:26:27.534Z,12.09
2023-05-10T05:28:55.518Z,11.97
2023-05-10T05:31:22.377Z,11.98
2023-05-10T05:33:48.974Z,11.86
2023-05-10T05:36:15.496Z,12.05
2023-05-10T05:38:42.007Z,12.55
2023-05-10T05:41:08.427Z,13.57
2023-05-10T05:43:36.795Z,14.04
2023-05-10T05:46:04.856Z,13.03
2023-05-10T05:48:31.995Z,12.51
2023-05-10T05:50:58.668Z,12.37
2023-05-10T05:53:25.505Z,13.28
2023-05-10T05:55:54.022Z,13.26
2023-05-10T05:58:20.907Z,13.13
2023-05-10T06:00:47.386Z,12.96
2023-05-10T06:03:13.947Z,12.82
2023-05-10T06:05:40.511Z,12.87
2023-05-10T06:08:06.992Z,12.84
2023-05-10T06:10:33.440Z,14.77
2023-05-10T06:12:59.913Z,17.47
2023-05-10T06:15:27.024Z,18.86
2023-05-10T06:17:53.595Z,19.63
2023-05-10T06:20:20.112Z,19.49
2023-05-10T06:22:46.718Z,19.66
2023-05-10T06:25:13.368Z,19.96
2023-05-10T06:27:39.818Z,20.36
2023-05-10T06:30:13.071Z,20.62
2023-05-10T06:32:40.241Z,18.84
2023-05-10T06:35:07.382Z,18.23
2023-05-10T06:37:34.147Z,17.59
2023-05-10T06:40:01.512Z,18.05
2023-05-10T06:42:28.301Z,18.28
2023-05-10T06:44:54.820Z,17.21
2023-05-10T06:47:21.257Z,15.75
2023-05-10T06:49:47.743Z,14.80
2023-05-10T06:52:14.165Z,14.34
2023-05-10T06:54:40.723Z,13.72
2023-05-10T06:57:16.111Z,13.68
2023-05-10T06:59:50.156Z,13.61
2023-05-10T07:02:16.871Z,14.18
2023-05-10T07:04:43.429Z,14.34
2023-05-10T07:07:09.906Z,14.17
2023-05-10T07:09:36.370Z,13.78
2023-05-10T07:12:03.090Z,13.66
2023-05-10T07:14:29.623Z,13.76
2023-05-10T07:16:56.610Z,14.08
2023-05-10T07:19:23.422Z,15.73
2023-05-10T07:21:50.041Z,16.16
2023-05-10T07:24:16.512Z,16.91
2023-05-10T07:26:43.059Z,16.22
2023-05-10T07:29:09.598Z,15.28
2023-05-10T07:31:36.652Z,14.35
2023-05-10T07:34:03.156Z,14.16
2023-05-10T07:36:29.839Z,13.70
2023-05-10T07:38:57.461Z,13.34
2023-05-10T07:41:24.065Z,13.27
2023-05-10T07:43:50.502Z,13.45
2023-05-10T07:46:17.352Z,14.37
2023-05-10T07:48:43.793Z,14.44
2023-05-10T07:51:10.656Z,14.71
2023-05-10T07:53:37.212Z,14.66
2023-05-10T07:56:21.335Z,14.28
2023-05-10T07:58:47.769Z,13.96
2023-05-10T08:01:14.215Z,13.88
2023-05-10T08:03:40.767Z,13.62
2023-05-10T08:06:07.448Z,14.22
2023-05-10T08:08:33.886Z,14.16
2023-05-10T08:11:00.350Z,14.20
2023-05-10T08:13:26.869Z,14.50
2023-05-10T08:15:54.138Z,14.08
2023-05-10T08:18:22.067Z,13.59
2023-05-10T08:20:49.302Z,13.27
2023-05-10T08:23:16.432Z,13.16
2023-05-10T08:25:42.909Z,12.95
2023-05-10T08:28:10.704Z,13.00
2023-05-10T08:30:38.394Z,13.08
2023-05-10T08:33:04.875Z,13.20
2023-05-10T08:35:31.846Z,13.27
2023-05-10T08:37:58.302Z,13.08
2023-05-10T08:40:25.266Z,12.75
2023-05-10T08:42:59.431Z,12.59
2023-05-10T08:45:32.616Z,12.60
2023-05-10T08:48:03.219Z,12.34
2023-05-10T08:50:31.059Z,12.25
2023-05-10T08:53:01.118Z,12.21
2023-05-10T08:55:28.611Z,12.13
2023-05-10T08:57:55.702Z,12.19
2023-05-10T09:00:23.979Z,12.17
2023-05-10T09:02:51.306Z,12.15
2023-05-10T09:05:18.798Z,12.12
2023-05-10T09:07:45.596Z,12.23
2023-05-10T09:10:12.739Z,12.19
2023-05-10T09:12:39.712Z,12.27
2023-05-10T09:15:08.349Z,12.45
2023-05-10T09:17:35.373Z,12.60
2023-05-10T09:20:05.076Z,13.05
2023-05-10T09:22:32.074Z,13.43
2023-05-10T09:25:12.157Z,13.73
2023-05-10T09:27:40.448Z,14.29
2023-05-10T09:30:08.172Z,14.76
2023-05-10T09:32:37.763Z,15.00
2023-05-10T09:35:12.086Z,14.67
2023-05-10T09:37:43.748Z,14.08
2023-05-10T09:40:16.225Z,13.76
2023-05-10T09:42:55.992Z,13.77
2023-05-10T09:45:24.502Z,13.85
2023-05-10T09:47:51.250Z,14.00
2023-05-10T09:50:17.929Z,14.20
2023-05-10T09:52:52.164Z,14.19
2023-05-10T09:55:20.897Z,14.18
2023-05-10T09:57:49.121Z,14.67
2023-05-10T10:00:20.160Z,15.59
2023-05-10T10:02:48.864Z,15.64
2023-05-10T10:05:16.380Z,15.73
2023-05-10T10:10:36.951Z,16.03
2023-05-10T10:13:03.849Z,16.46
2023-05-10T10:15:30.507Z,16.94
2023-05-10T10:17:57.050Z,17.86
2023-05-10T10:20:23.858Z,17.56
2023-05-10T10:22:50.787Z,17.88
2023-05-10T10:25:19.682Z,18.01
2023-05-10T10:27:52.741Z,17.97
2023-05-10T10:30:25.083Z,17.78
2023-05-10T10:33:02.677Z,17.35
2023-05-10T10:35:33.800Z,17.77
2023-05-10T10:38:01.327Z,18.22
2023-05-10T10:40:28.892Z,18.41
2023-05-10T10:42:56.066Z,17.61
2023-05-10T10:45:23.747Z,16.79
2023-05-10T10:47:54.358Z,16.18
2023-05-10T10:50:20.810Z,15.81
2023-05-10T10:52:49.022Z,15.50
2023-05-10T10:55:19.126Z,14.90
2023-05-10T10:57:55.932Z,14.94
2023-05-10T11:00:32.172Z,14.72
2023-05-10T11:03:07.351Z,14.60
2023-05-10T11:05:36.660Z,14.39
2023-05-10T11:08:15.817Z,14.23
2023-05-10T11:10:52.952Z,14.12
2023-05-10T11:13:32.567Z,14.00
2023-05-10T11:16:00.294Z,14.00
2023-05-10T11:18:29.460Z,14.01
2023-05-10T11:21:01.041Z,14.15
2023-05-10T11:23:33.193Z,14.24
2023-05-10T11:26:02.512Z,14.48
2023-05-10T11:28:29.320Z,14.63
2023-05-10T11:30:56.889Z,14.41
2023-05-10T11:33:23.490Z,14.55
2023-05-10T11:35:50.075Z,14.82
2023-05-10T11:38:16.599Z,15.11
2023-05-10T11:40:43.569Z,15.02
2023-05-10T11:43:11.740Z,15.57
2023-05-10T11:45:38.320Z,16.85
2023-05-10T11:48:05.257Z,17.63
2023-05-10T11:50:31.832Z,16.89
2023-05-10T11:52:59.629Z,16.42
2023-05-10T11:55:26.170Z,16.33
2023-05-10T11:57:53.951Z,16.73
2023-05-10T12:00:20.976Z,17.01
2023-05-10T12:02:48.429Z,17.29
2023-05-10T12:05:15.532Z,18.55
2023-05-10T12:07:42.194Z,20.77
2023-05-10T12:10:18.545Z,20.02
2023-05-10T12:12:49.041Z,21.15
2023-05-10T12:15:23.356Z,22.51
2023-05-10T12:17:50.813Z,23.06
2023-05-10T12:20:19.644Z,23.82
2023-05-10T12:23:00.326Z,22.64
2023-05-10T12:25:31.841Z,23.93
2023-05-10T12:28:01.957Z,23.51
2023-05-10T12:30:30.390Z,21.28
2023-05-10T12:33:15.699Z,19.77
2023-05-10T12:35:47.676Z,20.69
2023-05-10T12:38:31.463Z,20.35
2023-05-10T12:41:02.594Z,19.50
2023-05-10T12:43:29.672Z,20.53
2023-05-10T12:45:56.279Z,18.83
2023-05-10T12:48:23.820Z,17.92
2023-05-10T12:50:50.283Z,17.86
2023-05-10T12:53:17.557Z,18.06
2023-05-10T12:55:44.841Z,18.66
2023-05-10T12:58:13.891Z,18.36
2023-05-10T13:00:44.806Z,18.03
2023-05-10T13:03:11.485Z,17.90
2023-05-10T13:05:38.772Z,18.69
2023-05-10T13:08:05.711Z,18.43
2023-05-10T13:10:32.647Z,17.84
2023-05-10T13:12:59.682Z,17.81
2023-05-10T13:15:26.942Z,17.61
2023-05-10T13:17:54.938Z,18.10
2023-05-10T13:20:21.838Z,19.14
2023-05-10T13:22:49.200Z,19.21
2023-05-10T13:25:16.996Z,19.27
2023-05-10T13:27:43.607Z,18.68
2023-05-10T13:30:12.151Z,18.51
2023-05-10T13:32:39.226Z,18.33
2023-05-10T13:35:06.402Z,18.09
2023-05-10T13:37:36.280Z,18.77
2023-05-10T13:40:02.929Z,18.84
2023-05-10T13:42:29.671Z,18.62
2023-05-10T13:44:56.298Z,17.95
2023-05-10T13:47:23.295Z,18.01
2023-05-10T13:49:49.829Z,18.16
2023-05-10T13:52:16.378Z,17.79
2023-05-10T13:54:42.863Z,18.38
2023-05-10T13:57:09.417Z,18.20
2023-05-10T13:59:35.944Z,17.52
2023-05-10T14:02:05.491Z,17.73
2023-05-10T14:04:32.563Z,17.99
2023-05-10T14:06:59.084Z,18.02
2023-05-10T14:09:28.823Z,17.98
2023-05-10T14:11:55.267Z,17.68
2023-05-10T14:14:21.707Z,17.37
2023-05-10T14:16:48.280Z,17.38
2023-05-10T14:19:14.784Z,17.04
2023-05-10T14:21:41.245Z,17.39
2023-05-10T14:24:08.117Z,17.42
2023-05-10T14:26:35.456Z,17.27
2023-05-10T14:29:02.309Z,17.31
2023-05-10T14:31:31.127Z,17.21
2023-05-10T14:33:58.565Z,17.33
2023-05-10T14:36:25.191Z,17.26
2023-05-10T14:38:51.944Z,17.17
2023-05-10T14:41:18.796Z,16.79
2023-05-10T14:43:45.331Z,16.82
2023-05-10T14:46:12.099Z,16.95
2023-05-10T14:48:38.636Z,17.08
2023-05-10T14:51:05.096Z,17.23
2023-05-10T14:53:31.765Z,17.45
2023-05-10T14:55:58.400Z,17.40
2023-05-10T14:58:24.942Z,17.60
2023-05-10T15:00:52.000Z,17.48
2023-05-10T15:03:18.994Z,17.05
2023-05-10T15:05:49.017Z,16.98
2023-05-10T15:08:15.464Z,16.95
2023-05-10T15:10:41.908Z,17.04
2023-05-10T15:13:08.394Z,17.30
2023-05-10T15:24:43.188Z,17.55
2023-05-10T15:27:12.752Z,17.32
2023-05-10T15:29:39.305Z,17.43
2023-05-10T15:32:05.941Z,17.38
2023-05-10T15:34:34.860Z,17.23
2023-05-10T15:37:02.211Z,17.12
2023-05-10T15:39:28.647Z,17.06
2023-05-10T15:41:55.149Z,16.91
2023-05-10T15:44:21.820Z,16.90
2023-05-10T15:46:48.355Z,17.10
2023-05-10T15:49:14.886Z,17.01
2023-05-10T15:51:41.526Z,17.06
2023-05-10T15:54:08.483Z,16.95
2023-05-10T15:56:35.632Z,17.08
2023-05-10T15:59:02.498Z,17.23
2023-05-10T16:01:29.312Z,17.26
2023-05-10T16:03:56.182Z,17.40
2023-05-10T16:06:22.667Z,17.33
2023-05-10T16:08:49.159Z,17.18
2023-05-10T16:11:15.831Z,17.27
2023-05-10T16:13:42.275Z,17.28
2023-05-10T16:16:09.220Z,17.31
2023-05-10T16:18:36.068Z,17.42
2023-05-10T16:21:02.799Z,17.53
2023-05-10T16:23:29.470Z,17.70
2023-05-10T16:25:56.166Z,17.69
2023-05-10T16:28:22.691Z,17.59
2023-05-10T16:30:49.412Z,17.41
2023-05-10T16:33:16.706Z,17.52
2023-05-10T16:35:43.847Z,17.64
2023-05-10T16:38:11.153Z,17.53
2023-05-10T16:40:37.638Z,17.55
2023-05-10T16:43:04.124Z,17.52
2023-05-10T16:45:33.895Z,17.38
2023-05-10T16:48:00.484Z,17.05
2023-05-10T16:50:27.182Z,16.87
2023-05-10T16:52:53.809Z,16.80
2023-05-10T16:55:20.918Z,16.58
2023-05-10T16:57:47.445Z,16.37
2023-05-10T17:00:14.592Z,16.43
2023-05-10T17:02:41.678Z,16.35
2023-05-10T17:05:08.646Z,15.87
2023-05-10T17:07:35.177Z,15.48
2023-05-10T17:10:02.229Z,15.10
2023-05-10T17:12:28.854Z,14.88
2023-05-10T17:14:55.481Z,14.81
2023-05-10T17:17:23.489Z,14.68
2023-05-10T17:19:50.106Z,14.56
2023-05-10T17:22:16.641Z,14.50
2023-05-10T17:24:43.263Z,14.62
2023-05-10T17:27:09.752Z,14.42
2023-05-10T17:29:36.232Z,14.44
2023-05-10T17:32:02.976Z,14.35
2023-05-10T17:34:29.582Z,14.37
2023-05-10T17:36:56.092Z,14.26
2023-05-10T17:39:22.570Z,14.33
2023-05-10T17:41:49.064Z,14.30
2023-05-10T17:44:15.673Z,14.29
2023-05-10T17:46:42.110Z,14.26
2023-05-10T17:49:08.550Z,13.87
2023-05-10T17:51:35.044Z,14.05
2023-05-10T17:54:01.501Z,13.98
2023-05-10T17:56:28.751Z,13.82
2023-05-10T17:58:55.274Z,13.84
2023-05-10T18:01:21.804Z,13.73
2023-05-10T18:03:49.407Z,13.63
2023-05-10T18:06:16.000Z,13.47
2023-05-10T18:08:42.453Z,13.46
2023-05-10T18:11:08.887Z,13.51
2023-05-10T18:13:35.369Z,13.44
2023-05-10T18:16:01.836Z,13.36
2023-05-10T18:18:28.348Z,13.27
2023-05-10T18:20:57.538Z,13.01
2023-05-10T18:23:24.521Z,12.78
2023-05-10T18:25:51.783Z,12.62
2023-05-10T18:28:18.508Z,12.47
2023-05-10T18:30:45.379Z,12.46
2023-05-10T18:33:14.762Z,12.32
2023-05-10T18:35:41.354Z,12.21
2023-05-10T18:38:09.735Z,12.09
2023-05-10T18:40:36.688Z,12.08
2023-05-10T18:43:03.760Z,11.84
2023-05-10T18:45:30.286Z,11.68
2023-05-10T18:47:57.134Z,11.63
2023-05-10T18:50:23.639Z,11.57
2023-05-10T18:52:50.579Z,11.44
2023-05-10T18:55:17.201Z,11.27
2023-05-10T18:57:45.131Z,11.16
2023-05-10T19:00:12.418Z,11.01
2023-05-10T19:02:40.200Z,11.02
2023-05-10T19:05:07.695Z,10.85
2023-05-10T19:07:34.384Z,11.04
2023-05-10T19:10:00.870Z,10.82
2023-05-10T19:12:27.462Z,10.75
2023-05-10T19:14:54.008Z,10.73
2023-05-10T19:17:20.490Z,10.59
2023-05-10T19:19:49.769Z,10.55
2023-05-10T19:22:16.367Z,10.63
2023-05-10T19:24:42.911Z,10.58
2023-05-10T19:27:09.352Z,10.50
2023-05-10T19:29:35.858Z,10.54
2023-05-10T19:32:02.479Z,10.37
2023-05-10T19:34:29.041Z,10.27
2023-05-10T19:36:56.159Z,10.25
2023-05-10T19:39:22.657Z,10.29
2023-05-10T19:41:49.439Z,10.29
2023-05-10T19:44:16.073Z,10.04
2023-05-10T19:46:42.637Z,9.99
2023-05-10T19:49:09.122Z,9.84
2023-05-10T19:51:35.619Z,9.94
2023-05-10T19:54:02.077Z,10.20
2023-05-10T19:56:29.559Z,10.20
2023-05-10T19:58:56.204Z,10.14
2023-05-10T20:01:22.772Z,10.07
2023-05-10T20:03:49.343Z,10.03
2023-05-10T20:06:15.941Z,10.06
2023-05-10T20:08:42.543Z,9.99
2023-05-10T20:11:09.201Z,9.89
2023-05-10T20:13:35.732Z,9.88
2023-05-10T20:16:02.545Z,9.84
2023-05-10T20:18:29.194Z,9.77
2023-05-10T20:20:58.108Z,9.59
2023-05-10T20:23:24.952Z,9.58
2023-05-10T20:25:51.680Z,9.21
2023-05-10T20:28:23.373Z,9.22
2023-05-10T20:30:54.786Z,9.10
2023-05-10T20:33:22.665Z,9.15
2023-05-10T20:35:50.333Z,9.28
2023-05-10T20:38:18.099Z,9.36
2023-05-10T20:40:44.994Z,9.10
2023-05-10T20:43:11.534Z,8.91
2023-05-10T20:45:38.112Z,8.86
2023-05-10T20:48:05.057Z,8.74
2023-05-10T20:50:31.597Z,8.81
2023-05-10T20:52:58.183Z,8.66
2023-05-10T20:55:24.664Z,8.66
2023-05-10T20:57:51.502Z,8.56
2023-05-10T21:00:18.404Z,8.61
2023-05-10T21:02:46.327Z,8.65
2023-05-10T21:05:12.988Z,8.45
2023-05-10T21:07:39.746Z,8.48
2023-05-10T21:10:08.118Z,8.41
2023-05-10T21:12:34.690Z,8.26
2023-05-10T21:15:01.325Z,8.36
2023-05-10T21:17:27.821Z,8.55
2023-05-10T21:19:54.443Z,8.66
2023-05-10T21:22:21.467Z,8.41
2023-05-10T21:24:47.998Z,8.47
2023-05-10T21:27:14.475Z,8.30
2023-05-10T21:29:41.073Z,8.20
2023-05-10T21:32:07.699Z,8.27
2023-05-10T21:34:34.327Z,8.37
2023-05-10T21:37:01.182Z,8.22
2023-05-10T21:39:27.635Z,8.18
2023-05-10T21:41:56.055Z,8.07
2023-05-10T21:44:25.410Z,8.05
2023-05-10T21:46:51.865Z,8.07
2023-05-10T21:49:18.864Z,8.06
2023-05-10T21:51:45.653Z,8.17
2023-05-10T21:54:12.225Z,8.04
2023-05-10T21:56:38.700Z,8.11
2023-05-10T21:59:05.918Z,7.84
2023-05-10T22:01:32.588Z,7.92
2023-05-10T22:03:59.158Z,7.83
2023-05-10T22:06:25.663Z,7.73
2023-05-10T22:08:52.189Z,7.72
2023-05-10T22:11:18.724Z,7.76
2023-05-10T22:13:45.222Z,7.56
2023-05-10T22:16:11.696Z,7.55
2023-05-10T22:18:38.252Z,7.59
2023-05-10T22:21:04.819Z,7.57
2023-05-10T22:23:31.306Z,7.50
2023-05-10T22:26:04.098Z,7.51
2023-05-10T22:28:30.691Z,7.55
2023-05-10T22:30:57.516Z,7.57
2023-05-10T22:33:24.165Z,7.77
2023-05-10T22:35:50.811Z,7.90
2023-05-10T22:38:17.253Z,7.77
2023-05-10T22:40:43.688Z,7.73
2023-05-10T22:43:10.153Z,7.65
2023-05-10T22:45:36.584Z,7.63
2023-05-10T22:48:05.154Z,7.74
2023-05-10T22:50:32.044Z,7.82
2023-05-10T22:52:58.649Z,7.83
2023-05-10T22:55:25.203Z,7.67
2023-05-10T22:57:52.197Z,7.67
2023-05-10T23:00:19.295Z,7.40
2023-05-10T23:02:46.089Z,7.30
2023-05-10T23:05:13.158Z,7.35
2023-05-10T23:07:39.728Z,7.16
2023-05-10T23:10:06.595Z,7.25
2023-05-10T23:12:33.897Z,7.25
2023-05-10T23:15:00.485Z,7.17
2023-05-10T23:17:26.983Z,7.28
2023-05-10T23:19:53.498Z,7.18
2023-05-10T23:22:19.948Z,7.32
2023-05-10T23:24:46.407Z,7.43
2023-05-10T23:27:12.850Z,7.18
2023-05-10T23:29:39.299Z,7.09
2023-05-10T23:32:05.825Z,6.99
2023-05-10T23:34:32.325Z,6.93
2023-05-10T23:36:58.754Z,7.12
2023-05-10T23:39:25.355Z,7.22
2023-05-10T23:41:51.921Z,7.24
2023-05-10T23:44:18.458Z,7.07
2023-05-10T23:46:44.904Z,6.97
2023-05-10T23:49:11.429Z,6.97
2023-05-10T23:51:37.883Z,7.00
2023-05-10T23:54:04.380Z,6.95
2023-05-10T23:56:30.817Z,7.03
2023-05-10T23:58:57.499Z,7.04
